Holly Hill, Florida
Current Conditions -  °F | °C
As of 7:53 PM on Tuesday 21 Oct 2014 (Local Time) from KDAB Reporting Station
Broken Clouds Broken Clouds  
Wind Chill: 23°   Ceiling: 20000
Heat Index: 23°   Visibility: 10mi
Dew Point: 21°   Wind: 0mph
Humidity: 90%   Direction: NA
Pressure: 29.94"   Gusts: NA
Location:  29.25°N, 81.04°W
Report Text: KDAB 212353Z 00000KT 10SM FEW027 BKN200 23/21 A2994 RMK AO2 SLP138 T02280211 10283 20228 53008
Loading
Personal Weather Stations






























Interactive Weather Map
Tropical Storm Tracking
New forecast layout! Learn more

10-Day Weather Forecast

Advertisements
Track Severe Weather on mobile